sensor_id;sensor_type;location;lat;lon;timestamp;P1;durP1;ratioP1;P2;durP2;ratioP2
19225;SDS011;9747;48.536;12.522;2023-03-14T00:01:08;1.45;;;1.35;;
19225;SDS011;9747;48.536;12.522;2023-03-14T00:03:38;2.28;;;1.95;;
19225;SDS011;9747;48.536;12.522;2023-03-14T00:06:06;1.77;;;1.67;;
19225;SDS011;9747;48.536;12.522;2023-03-14T00:08:34;1.77;;;1.63;;
19225;SDS011;9747;48.536;12.522;2023-03-14T00:11:07;2.03;;;1.70;;
19225;SDS011;9747;48.536;12.522;2023-03-14T00:13:37;1.52;;;1.42;;
19225;SDS011;9747;48.536;12.522;2023-03-14T00:16:05;1.60;;;1.50;;
19225;SDS011;9747;48.536;12.522;2023-03-14T00:18:34;1.70;;;1.60;;
19225;SDS011;9747;48.536;12.522;2023-03-14T00:21:03;1.60;;;1.50;;
19225;SDS011;9747;48.536;12.522;2023-03-14T00:23:32;1.90;;;1.60;;
19225;SDS011;9747;48.536;12.522;2023-03-14T00:26:02;1.70;;;1.60;;
19225;SDS011;9747;48.536;12.522;2023-03-14T00:28:33;1.58;;;1.48;;
19225;SDS011;9747;48.536;12.522;2023-03-14T00:31:02;1.67;;;1.58;;
19225;SDS011;9747;48.536;12.522;2023-03-14T00:33:30;1.30;;;1.20;;
19225;SDS011;9747;48.536;12.522;2023-03-14T00:35:58;1.52;;;1.42;;
19225;SDS011;9747;48.536;12.522;2023-03-14T00:38:29;1.42;;;1.33;;
19225;SDS011;9747;48.536;12.522;2023-03-14T00:40:57;1.50;;;1.40;;
19225;SDS011;9747;48.536;12.522;2023-03-14T00:43:25;1.10;;;1.10;;
19225;SDS011;9747;48.536;12.522;2023-03-14T00:45:55;1.60;;;1.48;;
19225;SDS011;9747;48.536;12.522;2023-03-14T00:48:25;1.50;;;1.40;;
19225;SDS011;9747;48.536;12.522;2023-03-14T00:50:53;1.30;;;1.20;;
19225;SDS011;9747;48.536;12.522;2023-03-14T00:53:21;1.40;;;1.30;;
19225;SDS011;9747;48.536;12.522;2023-03-14T00:55:49;1.75;;;1.40;;
19225;SDS011;9747;48.536;12.522;2023-03-14T00:58:17;1.30;;;1.30;;
19225;SDS011;9747;48.536;12.522;2023-03-14T01:00:45;1.50;;;1.40;;
19225;SDS011;9747;48.536;12.522;2023-03-14T01:03:14;1.40;;;1.30;;
19225;SDS011;9747;48.536;12.522;2023-03-14T01:05:42;1.35;;;1.25;;
19225;SDS011;9747;48.536;12.522;2023-03-14T01:08:09;1.20;;;1.10;;
19225;SDS011;9747;48.536;12.522;2023-03-14T01:10:38;1.08;;;1.08;;
19225;SDS011;9747;48.536;12.522;2023-03-14T01:13:05;1.60;;;1.50;;
19225;SDS011;9747;48.536;12.522;2023-03-14T01:15:35;1.20;;;1.20;;
19225;SDS011;9747;48.536;12.522;2023-03-14T01:18:03;1.70;;;1.30;;
19225;SDS011;9747;48.536;12.522;2023-03-14T01:20:32;1.30;;;1.20;;
19225;SDS011;9747;48.536;12.522;2023-03-14T01:22:59;1.50;;;1.40;;
19225;SDS011;9747;48.536;12.522;2023-03-14T01:25:27;1.10;;;1.10;;
19225;SDS011;9747;48.536;12.522;2023-03-14T01:27:55;1.20;;;1.20;;
19225;SDS011;9747;48.536;12.522;2023-03-14T01:30:23;1.35;;;1.25;;
19225;SDS011;9747;48.536;12.522;2023-03-14T01:32:50;1.30;;;1.20;;
19225;SDS011;9747;48.536;12.522;2023-03-14T01:35:17;1.20;;;1.20;;
19225;SDS011;9747;48.536;12.522;2023-03-14T01:37:46;1.10;;;1.10;;
19225;SDS011;9747;48.536;12.522;2023-03-14T01:40:19;1.30;;;1.20;;
19225;SDS011;9747;48.536;12.522;2023-03-14T01:42:47;1.13;;;1.02;;
19225;SDS011;9747;48.536;12.522;2023-03-14T01:48:45;1.42;;;1.33;;
19225;SDS011;9747;48.536;12.522;2023-03-14T01:51:22;1.10;;;1.10;;
19225;SDS011;9747;48.536;12.522;2023-03-14T01:53:56;1.08;;;1.08;;
19225;SDS011;9747;48.536;12.522;2023-03-14T01:56:32;0.90;;;0.90;;
19225;SDS011;9747;48.536;12.522;2023-03-14T01:59:00;1.13;;;1.13;;
19225;SDS011;9747;48.536;12.522;2023-03-14T02:01:29;1.10;;;1.10;;
19225;SDS011;9747;48.536;12.522;2023-03-14T02:03:57;0.85;;;0.85;;
19225;SDS011;9747;48.536;12.522;2023-03-14T02:06:29;1.02;;;1.02;;
19225;SDS011;9747;48.536;12.522;2023-03-14T02:09:02;1.75;;;1.08;;
19225;SDS011;9747;48.536;12.522;2023-03-14T02:11:32;1.25;;;1.23;;
19225;SDS011;9747;48.536;12.522;2023-03-14T02:14:07;1.00;;;1.00;;
19225;SDS011;9747;48.536;12.522;2023-03-14T02:17:07;0.90;;;0.90;;
19225;SDS011;9747;48.536;12.522;2023-03-14T02:20:05;1.13;;;1.02;;
19225;SDS011;9747;48.536;12.522;2023-03-14T02:22:51;1.15;;;1.02;;
19225;SDS011;9747;48.536;12.522;2023-03-14T02:25:22;0.80;;;0.80;;
19225;SDS011;9747;48.536;12.522;2023-03-14T02:27:55;0.93;;;0.93;;
19225;SDS011;9747;48.536;12.522;2023-03-14T02:30:24;0.85;;;0.85;;
19225;SDS011;9747;48.536;12.522;2023-03-14T02:32:54;0.90;;;0.90;;
19225;SDS011;9747;48.536;12.522;2023-03-14T02:35:24;0.90;;;0.90;;
19225;SDS011;9747;48.536;12.522;2023-03-14T02:37:55;0.90;;;0.90;;
19225;SDS011;9747;48.536;12.522;2023-03-14T02:40:31;0.80;;;0.80;;
19225;SDS011;9747;48.536;12.522;2023-03-14T02:43:00;0.90;;;0.90;;
19225;SDS011;9747;48.536;12.522;2023-03-14T02:45:37;1.02;;;0.90;;
19225;SDS011;9747;48.536;12.522;2023-03-14T02:48:13;1.10;;;1.10;;
19225;SDS011;9747;48.536;12.522;2023-03-14T02:50:43;1.00;;;1.00;;
19225;SDS011;9747;48.536;12.522;2023-03-14T02:53:13;0.80;;;0.80;;
19225;SDS011;9747;48.536;12.522;2023-03-14T02:55:44;1.20;;;0.80;;
19225;SDS011;9747;48.536;12.522;2023-03-14T02:58:16;1.38;;;0.90;;
19225;SDS011;9747;48.536;12.522;2023-03-14T03:00:46;1.00;;;1.00;;
19225;SDS011;9747;48.536;12.522;2023-03-14T03:03:16;0.80;;;0.80;;
19225;SDS011;9747;48.536;12.522;2023-03-14T03:05:47;0.80;;;0.80;;
19225;SDS011;9747;48.536;12.522;2023-03-14T03:08:15;0.90;;;0.90;;
19225;SDS011;9747;48.536;12.522;2023-03-14T03:10:43;0.80;;;0.80;;
19225;SDS011;9747;48.536;12.522;2023-03-14T03:13:11;0.77;;;0.77;;
19225;SDS011;9747;48.536;12.522;2023-03-14T03:15:42;0.95;;;0.80;;
19225;SDS011;9747;48.536;12.522;2023-03-14T03:18:09;0.80;;;0.80;;
19225;SDS011;9747;48.536;12.522;2023-03-14T03:20:37;0.70;;;0.70;;
19225;SDS011;9747;48.536;12.522;2023-03-14T03:23:04;1.38;;;0.82;;
19225;SDS011;9747;48.536;12.522;2023-03-14T03:25:32;1.00;;;0.85;;
19225;SDS011;9747;48.536;12.522;2023-03-14T03:28:02;0.85;;;0.85;;
19225;SDS011;9747;48.536;12.522;2023-03-14T03:30:36;0.70;;;0.70;;
19225;SDS011;9747;48.536;12.522;2023-03-14T03:33:06;0.80;;;0.80;;
19225;SDS011;9747;48.536;12.522;2023-03-14T03:35:34;0.60;;;0.60;;
19225;SDS011;9747;48.536;12.522;2023-03-14T03:38:07;0.70;;;0.70;;
19225;SDS011;9747;48.536;12.522;2023-03-14T03:40:38;0.55;;;0.55;;
19225;SDS011;9747;48.536;12.522;2023-03-14T03:43:08;0.70;;;0.70;;
19225;SDS011;9747;48.536;12.522;2023-03-14T03:45:39;0.70;;;0.70;;
19225;SDS011;9747;48.536;12.522;2023-03-14T03:48:07;0.75;;;0.75;;
19225;SDS011;9747;48.536;12.522;2023-03-14T03:50:36;0.70;;;0.70;;
19225;SDS011;9747;48.536;12.522;2023-03-14T03:53:03;0.68;;;0.68;;
19225;SDS011;9747;48.536;12.522;2023-03-14T03:55:31;0.70;;;0.70;;
19225;SDS011;9747;48.536;12.522;2023-03-14T03:57:58;0.60;;;0.60;;
19225;SDS011;9747;48.536;12.522;2023-03-14T04:00:26;0.60;;;0.60;;
19225;SDS011;9747;48.536;12.522;2023-03-14T04:02:53;0.70;;;0.70;;
19225;SDS011;9747;48.536;12.522;2023-03-14T04:05:23;0.80;;;0.70;;
19225;SDS011;9747;48.536;12.522;2023-03-14T04:07:57;0.60;;;0.60;;
19225;SDS011;9747;48.536;12.522;2023-03-14T04:10:26;0.55;;;0.55;;
19225;SDS011;9747;48.536;12.522;2023-03-14T04:13:09;0.55;;;0.55;;
19225;SDS011;9747;48.536;12.522;2023-03-14T04:15:38;0.60;;;0.60;;
19225;SDS011;9747;48.536;12.522;2023-03-14T04:18:16;0.70;;;0.70;;
19225;SDS011;9747;48.536;12.522;2023-03-14T04:20:45;0.60;;;0.60;;
19225;SDS011;9747;48.536;12.522;2023-03-14T04:23:17;0.70;;;0.70;;
19225;SDS011;9747;48.536;12.522;2023-03-14T04:25:48;0.70;;;0.70;;
19225;SDS011;9747;48.536;12.522;2023-03-14T04:28:16;0.50;;;0.50;;
19225;SDS011;9747;48.536;12.522;2023-03-14T04:30:44;0.68;;;0.55;;
19225;SDS011;9747;48.536;12.522;2023-03-14T04:33:16;0.80;;;0.60;;
19225;SDS011;9747;48.536;12.522;2023-03-14T04:35:54;0.60;;;0.60;;
19225;SDS011;9747;48.536;12.522;2023-03-14T04:38:21;0.57;;;0.57;;
19225;SDS011;9747;48.536;12.522;2023-03-14T04:40:50;0.63;;;0.63;;
19225;SDS011;9747;48.536;12.522;2023-03-14T04:43:20;0.60;;;0.60;;
19225;SDS011;9747;48.536;12.522;2023-03-14T04:45:57;0.60;;;0.60;;
19225;SDS011;9747;48.536;12.522;2023-03-14T04:48:26;0.35;;;0.35;;
19225;SDS011;9747;48.536;12.522;2023-03-14T04:50:55;0.50;;;0.50;;
19225;SDS011;9747;48.536;12.522;2023-03-14T04:53:23;0.60;;;0.60;;
19225;SDS011;9747;48.536;12.522;2023-03-14T04:55:54;0.47;;;0.47;;
19225;SDS011;9747;48.536;12.522;2023-03-14T04:58:26;0.60;;;0.60;;
19225;SDS011;9747;48.536;12.522;2023-03-14T05:00:55;0.55;;;0.50;;
19225;SDS011;9747;48.536;12.522;2023-03-14T05:03:39;0.40;;;0.40;;
19225;SDS011;9747;48.536;12.522;2023-03-14T05:06:15;1.08;;;0.60;;
19225;SDS011;9747;48.536;12.522;2023-03-14T05:08:48;0.70;;;0.70;;
19225;SDS011;9747;48.536;12.522;2023-03-14T05:11:36;1.25;;;0.65;;
19225;SDS011;9747;48.536;12.522;2023-03-14T05:14:12;3.42;;;0.73;;
19225;SDS011;9747;48.536;12.522;2023-03-14T05:17:00;1.58;;;0.68;;
19225;SDS011;9747;48.536;12.522;2023-03-14T05:19:37;4.05;;;1.05;;
19225;SDS011;9747;48.536;12.522;2023-03-14T05:22:24;4.07;;;0.80;;
19225;SDS011;9747;48.536;12.522;2023-03-14T05:25:14;4.60;;;0.70;;
19225;SDS011;9747;48.536;12.522;2023-03-14T05:27:52;2.28;;;0.88;;
19225;SDS011;9747;48.536;12.522;2023-03-14T05:30:35;3.60;;;0.80;;
19225;SDS011;9747;48.536;12.522;2023-03-14T05:33:06;3.78;;;0.80;;
19225;SDS011;9747;48.536;12.522;2023-03-14T05:36:03;3.90;;;0.88;;
19225;SDS011;9747;48.536;12.522;2023-03-14T05:38:51;2.97;;;0.90;;
19225;SDS011;9747;48.536;12.522;2023-03-14T05:41:37;4.30;;;1.00;;
19225;SDS011;9747;48.536;12.522;2023-03-14T05:44:16;2.88;;;0.60;;
19225;SDS011;9747;48.536;12.522;2023-03-14T05:47:04;1.40;;;0.70;;
19225;SDS011;9747;48.536;12.522;2023-03-14T05:49:32;2.05;;;0.60;;
19225;SDS011;9747;48.536;12.522;2023-03-14T05:52:11;0.90;;;0.70;;
19225;SDS011;9747;48.536;12.522;2023-03-14T05:55:03;1.48;;;0.70;;
19225;SDS011;9747;48.536;12.522;2023-03-14T05:57:52;2.95;;;0.70;;
19225;SDS011;9747;48.536;12.522;2023-03-14T06:00:52;3.72;;;0.75;;
19225;SDS011;9747;48.536;12.522;2023-03-14T06:03:34;1.80;;;0.60;;
19225;SDS011;9747;48.536;12.522;2023-03-14T06:06:02;1.77;;;0.70;;
19225;SDS011;9747;48.536;12.522;2023-03-14T06:08:30;2.58;;;0.80;;
19225;SDS011;9747;48.536;12.522;2023-03-14T06:11:02;3.58;;;1.00;;
19225;SDS011;9747;48.536;12.522;2023-03-14T06:13:30;1.95;;;0.75;;
19225;SDS011;9747;48.536;12.522;2023-03-14T06:15:57;1.30;;;0.50;;
19225;SDS011;9747;48.536;12.522;2023-03-14T06:18:25;1.55;;;0.60;;
19225;SDS011;9747;48.536;12.522;2023-03-14T06:20:54;2.72;;;0.40;;
19225;SDS011;9747;48.536;12.522;2023-03-14T06:23:24;1.80;;;0.60;;
19225;SDS011;9747;48.536;12.522;2023-03-14T06:25:53;2.65;;;0.57;;
19225;SDS011;9747;48.536;12.522;2023-03-14T06:28:24;1.45;;;0.65;;
19225;SDS011;9747;48.536;12.522;2023-03-14T06:30:56;1.17;;;0.77;;
19225;SDS011;9747;48.536;12.522;2023-03-14T06:33:29;2.50;;;0.70;;
19225;SDS011;9747;48.536;12.522;2023-03-14T06:35:57;4.57;;;1.02;;
19225;SDS011;9747;48.536;12.522;2023-03-14T06:38:24;2.40;;;0.60;;
19225;SDS011;9747;48.536;12.522;2023-03-14T06:40:54;1.63;;;0.40;;
19225;SDS011;9747;48.536;12.522;2023-03-14T06:43:32;1.73;;;0.68;;
19225;SDS011;9747;48.536;12.522;2023-03-14T06:46:00;2.05;;;0.50;;
19225;SDS011;9747;48.536;12.522;2023-03-14T06:48:31;0.80;;;0.60;;
19225;SDS011;9747;48.536;12.522;2023-03-14T06:50:58;1.85;;;0.50;;
19225;SDS011;9747;48.536;12.522;2023-03-14T06:53:25;0.50;;;0.40;;
19225;SDS011;9747;48.536;12.522;2023-03-14T06:55:53;1.27;;;0.50;;
19225;SDS011;9747;48.536;12.522;2023-03-14T06:58:21;0.45;;;0.45;;
19225;SDS011;9747;48.536;12.522;2023-03-14T07:00:50;0.95;;;0.40;;
19225;SDS011;9747;48.536;12.522;2023-03-14T07:03:22;3.30;;;0.43;;
19225;SDS011;9747;48.536;12.522;2023-03-14T07:05:53;0.73;;;0.50;;
19225;SDS011;9747;48.536;12.522;2023-03-14T07:08:20;1.08;;;0.43;;
19225;SDS011;9747;48.536;12.522;2023-03-14T07:10:48;0.40;;;0.40;;
19225;SDS011;9747;48.536;12.522;2023-03-14T07:13:16;0.30;;;0.30;;
19225;SDS011;9747;48.536;12.522;2023-03-14T07:15:52;1.10;;;0.40;;
19225;SDS011;9747;48.536;12.522;2023-03-14T07:18:20;1.00;;;0.75;;
19225;SDS011;9747;48.536;12.522;2023-03-14T07:20:47;0.90;;;0.43;;
19225;SDS011;9747;48.536;12.522;2023-03-14T07:23:15;0.57;;;0.40;;
19225;SDS011;9747;48.536;12.522;2023-03-14T07:25:46;0.50;;;0.50;;
19225;SDS011;9747;48.536;12.522;2023-03-14T07:28:16;0.52;;;0.50;;
19225;SDS011;9747;48.536;12.522;2023-03-14T07:30:46;0.95;;;0.60;;
19225;SDS011;9747;48.536;12.522;2023-03-14T07:33:20;1.50;;;0.40;;
19225;SDS011;9747;48.536;12.522;2023-03-14T07:35:49;0.60;;;0.50;;
19225;SDS011;9747;48.536;12.522;2023-03-14T07:38:17;3.45;;;0.73;;
19225;SDS011;9747;48.536;12.522;2023-03-14T07:41:04;1.42;;;0.50;;
19225;SDS011;9747;48.536;12.522;2023-03-14T07:43:36;0.35;;;0.35;;
19225;SDS011;9747;48.536;12.522;2023-03-14T07:46:04;0.70;;;0.47;;
19225;SDS011;9747;48.536;12.522;2023-03-14T07:48:33;0.57;;;0.50;;
19225;SDS011;9747;48.536;12.522;2023-03-14T07:51:01;1.27;;;0.50;;
19225;SDS011;9747;48.536;12.522;2023-03-14T07:53:29;0.40;;;0.40;;
19225;SDS011;9747;48.536;12.522;2023-03-14T07:55:56;1.05;;;0.30;;
19225;SDS011;9747;48.536;12.522;2023-03-14T07:58:24;0.65;;;0.40;;
19225;SDS011;9747;48.536;12.522;2023-03-14T08:00:52;0.95;;;0.50;;
19225;SDS011;9747;48.536;12.522;2023-03-14T08:03:19;0.57;;;0.57;;
19225;SDS011;9747;48.536;12.522;2023-03-14T08:05:48;0.75;;;0.40;;
19225;SDS011;9747;48.536;12.522;2023-03-14T08:08:17;0.40;;;0.40;;
19225;SDS011;9747;48.536;12.522;2023-03-14T08:10:44;0.40;;;0.40;;
19225;SDS011;9747;48.536;12.522;2023-03-14T08:13:12;0.30;;;0.30;;
19225;SDS011;9747;48.536;12.522;2023-03-14T08:15:40;0.63;;;0.43;;
19225;SDS011;9747;48.536;12.522;2023-03-14T08:18:08;0.40;;;0.40;;
19225;SDS011;9747;48.536;12.522;2023-03-14T08:20:35;0.88;;;0.50;;
19225;SDS011;9747;48.536;12.522;2023-03-14T08:23:04;0.90;;;0.60;;
19225;SDS011;9747;48.536;12.522;2023-03-14T08:25:32;0.43;;;0.40;;
19225;SDS011;9747;48.536;12.522;2023-03-14T08:27:59;0.77;;;0.50;;
19225;SDS011;9747;48.536;12.522;2023-03-14T08:30:27;0.35;;;0.30;;
19225;SDS011;9747;48.536;12.522;2023-03-14T08:32:55;0.65;;;0.30;;
19225;SDS011;9747;48.536;12.522;2023-03-14T08:35:23;0.40;;;0.40;;
19225;SDS011;9747;48.536;12.522;2023-03-14T08:37:51;0.30;;;0.30;;
19225;SDS011;9747;48.536;12.522;2023-03-14T08:40:20;0.82;;;0.40;;
19225;SDS011;9747;48.536;12.522;2023-03-14T08:42:48;0.30;;;0.30;;
19225;SDS011;9747;48.536;12.522;2023-03-14T08:45:15;0.40;;;0.40;;
19225;SDS011;9747;48.536;12.522;2023-03-14T08:47:43;0.75;;;0.43;;
19225;SDS011;9747;48.536;12.522;2023-03-14T08:50:11;0.50;;;0.50;;
19225;SDS011;9747;48.536;12.522;2023-03-14T08:52:39;0.40;;;0.40;;
19225;SDS011;9747;48.536;12.522;2023-03-14T08:55:07;0.40;;;0.40;;
19225;SDS011;9747;48.536;12.522;2023-03-14T08:57:37;0.45;;;0.43;;
19225;SDS011;9747;48.536;12.522;2023-03-14T09:00:05;0.93;;;0.47;;
19225;SDS011;9747;48.536;12.522;2023-03-14T09:02:38;1.13;;;0.65;;
19225;SDS011;9747;48.536;12.522;2023-03-14T09:05:06;0.30;;;0.30;;
19225;SDS011;9747;48.536;12.522;2023-03-14T09:07:35;0.40;;;0.40;;
19225;SDS011;9747;48.536;12.522;2023-03-14T09:10:02;0.20;;;0.20;;
19225;SDS011;9747;48.536;12.522;2023-03-14T09:12:31;0.43;;;0.40;;
19225;SDS011;9747;48.536;12.522;2023-03-14T09:15:00;0.43;;;0.40;;
19225;SDS011;9747;48.536;12.522;2023-03-14T09:17:28;0.30;;;0.30;;
19225;SDS011;9747;48.536;12.522;2023-03-14T09:19:55;0.32;;;0.30;;
19225;SDS011;9747;48.536;12.522;2023-03-14T09:22:23;0.47;;;0.47;;
19225;SDS011;9747;48.536;12.522;2023-03-14T09:24:51;0.50;;;0.28;;
19225;SDS011;9747;48.536;12.522;2023-03-14T09:27:18;0.82;;;0.30;;
19225;SDS011;9747;48.536;12.522;2023-03-14T09:29:45;0.30;;;0.30;;
19225;SDS011;9747;48.536;12.522;2023-03-14T09:32:14;0.57;;;0.20;;
19225;SDS011;9747;48.536;12.522;2023-03-14T09:34:42;0.40;;;0.38;;
19225;SDS011;9747;48.536;12.522;2023-03-14T09:37:09;1.55;;;0.45;;
19225;SDS011;9747;48.536;12.522;2023-03-14T09:39:37;0.40;;;0.40;;
19225;SDS011;9747;48.536;12.522;2023-03-14T09:42:05;0.40;;;0.30;;
19225;SDS011;9747;48.536;12.522;2023-03-14T09:44:38;0.20;;;0.20;;
19225;SDS011;9747;48.536;12.522;2023-03-14T09:47:10;0.30;;;0.30;;
19225;SDS011;9747;48.536;12.522;2023-03-14T09:49:40;0.20;;;0.20;;
19225;SDS011;9747;48.536;12.522;2023-03-14T09:52:10;0.75;;;0.30;;
19225;SDS011;9747;48.536;12.522;2023-03-14T09:54:42;0.30;;;0.30;;
19225;SDS011;9747;48.536;12.522;2023-03-14T09:57:11;0.40;;;0.40;;
19225;SDS011;9747;48.536;12.522;2023-03-14T09:59:41;0.30;;;0.30;;
19225;SDS011;9747;48.536;12.522;2023-03-14T10:02:15;0.30;;;0.30;;
19225;SDS011;9747;48.536;12.522;2023-03-14T10:04:47;0.30;;;0.30;;
19225;SDS011;9747;48.536;12.522;2023-03-14T10:07:17;0.20;;;0.20;;
19225;SDS011;9747;48.536;12.522;2023-03-14T10:09:48;0.20;;;0.20;;
19225;SDS011;9747;48.536;12.522;2023-03-14T10:12:17;0.30;;;0.30;;
19225;SDS011;9747;48.536;12.522;2023-03-14T10:14:46;0.30;;;0.30;;
19225;SDS011;9747;48.536;12.522;2023-03-14T10:17:16;0.30;;;0.30;;
19225;SDS011;9747;48.536;12.522;2023-03-14T10:19:53;0.10;;;0.10;;
19225;SDS011;9747;48.536;12.522;2023-03-14T10:22:23;0.30;;;0.30;;
19225;SDS011;9747;48.536;12.522;2023-03-14T10:24:54;0.25;;;0.25;;
19225;SDS011;9747;48.536;12.522;2023-03-14T10:27:27;0.40;;;0.40;;
19225;SDS011;9747;48.536;12.522;2023-03-14T10:29:57;0.28;;;0.28;;
19225;SDS011;9747;48.536;12.522;2023-03-14T10:32:32;0.40;;;0.40;;
19225;SDS011;9747;48.536;12.522;2023-03-14T10:35:07;0.70;;;0.40;;
19225;SDS011;9747;48.536;12.522;2023-03-14T10:37:48;0.90;;;0.20;;
19225;SDS011;9747;48.536;12.522;2023-03-14T10:40:20;0.30;;;0.30;;
19225;SDS011;9747;48.536;12.522;2023-03-14T10:42:53;0.75;;;0.20;;
19225;SDS011;9747;48.536;12.522;2023-03-14T10:51:05;0.30;;;0.30;;
19225;SDS011;9747;48.536;12.522;2023-03-14T10:53:39;0.85;;;0.40;;
19225;SDS011;9747;48.536;12.522;2023-03-14T10:56:11;0.88;;;0.40;;
19225;SDS011;9747;48.536;12.522;2023-03-14T10:58:40;0.30;;;0.30;;
19225;SDS011;9747;48.536;12.522;2023-03-14T11:04:03;0.20;;;0.20;;
19225;SDS011;9747;48.536;12.522;2023-03-14T11:06:44;0.40;;;0.40;;
19225;SDS011;9747;48.536;12.522;2023-03-14T11:09:18;0.30;;;0.30;;
19225;SDS011;9747;48.536;12.522;2023-03-14T11:11:49;0.20;;;0.20;;
19225;SDS011;9747;48.536;12.522;2023-03-14T11:14:20;0.22;;;0.22;;
19225;SDS011;9747;48.536;12.522;2023-03-14T11:16:56;0.57;;;0.30;;
19225;SDS011;9747;48.536;12.522;2023-03-14T11:19:42;0.38;;;0.38;;
19225;SDS011;9747;48.536;12.522;2023-03-14T11:22:26;0.30;;;0.30;;
19225;SDS011;9747;48.536;12.522;2023-03-14T11:25:12;0.30;;;0.30;;
19225;SDS011;9747;48.536;12.522;2023-03-14T11:27:46;0.30;;;0.30;;
19225;SDS011;9747;48.536;12.522;2023-03-14T11:30:19;0.40;;;0.40;;
19225;SDS011;9747;48.536;12.522;2023-03-14T11:32:53;0.25;;;0.25;;
19225;SDS011;9747;48.536;12.522;2023-03-14T11:35:26;0.20;;;0.20;;
19225;SDS011;9747;48.536;12.522;2023-03-14T11:37:59;0.28;;;0.28;;
19225;SDS011;9747;48.536;12.522;2023-03-14T11:40:35;0.22;;;0.22;;
19225;SDS011;9747;48.536;12.522;2023-03-14T11:43:05;0.40;;;0.30;;
19225;SDS011;9747;48.536;12.522;2023-03-14T11:45:38;0.20;;;0.20;;
19225;SDS011;9747;48.536;12.522;2023-03-14T11:48:12;0.20;;;0.20;;
19225;SDS011;9747;48.536;12.522;2023-03-14T11:50:46;0.30;;;0.30;;
19225;SDS011;9747;48.536;12.522;2023-03-14T11:53:18;0.22;;;0.22;;
19225;SDS011;9747;48.536;12.522;2023-03-14T11:55:48;0.20;;;0.20;;
19225;SDS011;9747;48.536;12.522;2023-03-14T11:58:17;0.43;;;0.30;;
19225;SDS011;9747;48.536;12.522;2023-03-14T12:00:50;0.32;;;0.32;;
19225;SDS011;9747;48.536;12.522;2023-03-14T12:03:21;0.40;;;0.20;;
19225;SDS011;9747;48.536;12.522;2023-03-14T12:05:58;0.20;;;0.20;;
19225;SDS011;9747;48.536;12.522;2023-03-14T12:11:30;0.38;;;0.30;;
19225;SDS011;9747;48.536;12.522;2023-03-14T12:14:01;0.30;;;0.30;;
19225;SDS011;9747;48.536;12.522;2023-03-14T12:16:31;0.35;;;0.30;;
19225;SDS011;9747;48.536;12.522;2023-03-14T12:21:57;0.30;;;0.30;;
19225;SDS011;9747;48.536;12.522;2023-03-14T12:24:30;0.30;;;0.30;;
19225;SDS011;9747;48.536;12.522;2023-03-14T12:27:00;0.20;;;0.20;;
19225;SDS011;9747;48.536;12.522;2023-03-14T12:29:30;0.30;;;0.30;;
19225;SDS011;9747;48.536;12.522;2023-03-14T12:32:07;0.52;;;0.40;;
19225;SDS011;9747;48.536;12.522;2023-03-14T12:34:51;0.30;;;0.30;;
19225;SDS011;9747;48.536;12.522;2023-03-14T12:40:12;0.20;;;0.20;;
19225;SDS011;9747;48.536;12.522;2023-03-14T12:42:45;0.63;;;0.30;;
19225;SDS011;9747;48.536;12.522;2023-03-14T12:45:25;0.22;;;0.22;;
19225;SDS011;9747;48.536;12.522;2023-03-14T12:48:03;0.30;;;0.30;;
19225;SDS011;9747;48.536;12.522;2023-03-14T12:50:37;0.20;;;0.20;;
19225;SDS011;9747;48.536;12.522;2023-03-14T12:53:24;0.30;;;0.30;;
19225;SDS011;9747;48.536;12.522;2023-03-14T12:56:48;0.20;;;0.20;;
19225;SDS011;9747;48.536;12.522;2023-03-14T12:59:31;0.30;;;0.30;;
19225;SDS011;9747;48.536;12.522;2023-03-14T13:02:10;0.28;;;0.28;;
19225;SDS011;9747;48.536;12.522;2023-03-14T13:04:50;0.22;;;0.22;;
19225;SDS011;9747;48.536;12.522;2023-03-14T13:07:29;0.32;;;0.32;;
19225;SDS011;9747;48.536;12.522;2023-03-14T13:10:02;0.30;;;0.30;;
19225;SDS011;9747;48.536;12.522;2023-03-14T13:12:47;0.32;;;0.20;;
19225;SDS011;9747;48.536;12.522;2023-03-14T13:15:19;0.20;;;0.20;;
19225;SDS011;9747;48.536;12.522;2023-03-14T13:17:51;0.20;;;0.20;;
19225;SDS011;9747;48.536;12.522;2023-03-14T13:20:23;0.20;;;0.20;;
19225;SDS011;9747;48.536;12.522;2023-03-14T13:22:55;0.20;;;0.20;;
19225;SDS011;9747;48.536;12.522;2023-03-14T13:25:23;0.30;;;0.30;;
19225;SDS011;9747;48.536;12.522;2023-03-14T13:27:53;0.20;;;0.20;;
19225;SDS011;9747;48.536;12.522;2023-03-14T13:30:22;0.20;;;0.20;;
19225;SDS011;9747;48.536;12.522;2023-03-14T13:32:53;0.15;;;0.10;;
19225;SDS011;9747;48.536;12.522;2023-03-14T13:35:22;0.43;;;0.30;;
19225;SDS011;9747;48.536;12.522;2023-03-14T13:37:54;0.20;;;0.20;;
19225;SDS011;9747;48.536;12.522;2023-03-14T13:40:25;0.20;;;0.20;;
19225;SDS011;9747;48.536;12.522;2023-03-14T13:43:04;0.20;;;0.20;;
19225;SDS011;9747;48.536;12.522;2023-03-14T13:45:47;0.20;;;0.20;;
19225;SDS011;9747;48.536;12.522;2023-03-14T13:48:20;0.35;;;0.35;;
19225;SDS011;9747;48.536;12.522;2023-03-14T13:50:52;0.20;;;0.20;;
19225;SDS011;9747;48.536;12.522;2023-03-14T13:53:22;0.30;;;0.30;;
19225;SDS011;9747;48.536;12.522;2023-03-14T13:55:51;0.28;;;0.28;;
19225;SDS011;9747;48.536;12.522;2023-03-14T13:58:21;0.20;;;0.20;;
19225;SDS011;9747;48.536;12.522;2023-03-14T14:00:56;0.73;;;0.40;;
19225;SDS011;9747;48.536;12.522;2023-03-14T14:03:27;0.20;;;0.20;;
19225;SDS011;9747;48.536;12.522;2023-03-14T14:05:59;0.20;;;0.20;;
19225;SDS011;9747;48.536;12.522;2023-03-14T14:08:26;1.17;;;0.22;;
19225;SDS011;9747;48.536;12.522;2023-03-14T14:10:55;0.22;;;0.22;;
19225;SDS011;9747;48.536;12.522;2023-03-14T14:13:28;0.30;;;0.28;;
19225;SDS011;9747;48.536;12.522;2023-03-14T14:15:58;0.20;;;0.20;;
19225;SDS011;9747;48.536;12.522;2023-03-14T14:18:27;0.30;;;0.30;;
19225;SDS011;9747;48.536;12.522;2023-03-14T14:20:55;0.32;;;0.32;;
19225;SDS011;9747;48.536;12.522;2023-03-14T14:23:24;0.20;;;0.20;;
19225;SDS011;9747;48.536;12.522;2023-03-14T14:25:54;0.30;;;0.30;;
19225;SDS011;9747;48.536;12.522;2023-03-14T14:28:23;0.22;;;0.22;;
19225;SDS011;9747;48.536;12.522;2023-03-14T14:31:02;0.13;;;0.13;;
19225;SDS011;9747;48.536;12.522;2023-03-14T14:33:39;0.28;;;0.28;;
19225;SDS011;9747;48.536;12.522;2023-03-14T14:36:14;0.20;;;0.20;;
19225;SDS011;9747;48.536;12.522;2023-03-14T14:38:51;0.47;;;0.30;;
19225;SDS011;9747;48.536;12.522;2023-03-14T14:41:20;0.30;;;0.30;;
19225;SDS011;9747;48.536;12.522;2023-03-14T14:43:51;0.25;;;0.20;;
19225;SDS011;9747;48.536;12.522;2023-03-14T14:46:19;0.45;;;0.20;;
19225;SDS011;9747;48.536;12.522;2023-03-14T14:48:47;0.28;;;0.28;;
19225;SDS011;9747;48.536;12.522;2023-03-14T14:51:23;0.10;;;0.10;;
19225;SDS011;9747;48.536;12.522;2023-03-14T14:54:05;0.40;;;0.40;;
19225;SDS011;9747;48.536;12.522;2023-03-14T14:56:39;0.20;;;0.20;;
19225;SDS011;9747;48.536;12.522;2023-03-14T14:59:18;0.15;;;0.15;;
19225;SDS011;9747;48.536;12.522;2023-03-14T15:01:49;0.20;;;0.20;;
19225;SDS011;9747;48.536;12.522;2023-03-14T15:04:17;0.30;;;0.30;;
19225;SDS011;9747;48.536;12.522;2023-03-14T15:06:45;0.20;;;0.20;;
19225;SDS011;9747;48.536;12.522;2023-03-14T15:09:15;0.35;;;0.30;;
19225;SDS011;9747;48.536;12.522;2023-03-14T15:11:43;0.20;;;0.20;;
19225;SDS011;9747;48.536;12.522;2023-03-14T15:14:12;0.30;;;0.30;;
19225;SDS011;9747;48.536;12.522;2023-03-14T15:16:39;0.20;;;0.20;;
19225;SDS011;9747;48.536;12.522;2023-03-14T15:19:10;0.30;;;0.30;;
19225;SDS011;9747;48.536;12.522;2023-03-14T15:21:41;1.23;;;0.30;;
19225;SDS011;9747;48.536;12.522;2023-03-14T15:24:09;1.10;;;0.20;;
19225;SDS011;9747;48.536;12.522;2023-03-14T15:26:37;0.22;;;0.22;;
19225;SDS011;9747;48.536;12.522;2023-03-14T15:29:04;1.25;;;0.60;;
19225;SDS011;9747;48.536;12.522;2023-03-14T15:31:34;0.82;;;0.20;;
19225;SDS011;9747;48.536;12.522;2023-03-14T15:34:02;0.30;;;0.30;;
19225;SDS011;9747;48.536;12.522;2023-03-14T15:36:30;1.02;;;0.60;;